Centerville, Kansas
Current Conditions -  °F | °C
As of 12:53 AM on Friday 31 Oct 2014 (Local Time) from KIXD Reporting Station
Clear Clear  
Wind Chill: 42°   Ceiling: Unl
Heat Index: 47°   Visibility: 10mi
Dew Point: 41°   Wind: 10mph
Humidity: 80%   Direction: 330°NNW
Pressure: 30.24"   Gusts: NA
Location:  38.22°N, 95.01°W
Report Text: KIXD 310553Z AUTO 33009KT 10SM CLR 08/05 A3024 RMK AO2 SLP236 T00830050 10144 20083 402000072 51024
Loading
Personal Weather Stations






























Interactive Weather Map
Tropical Storm Tracking
New forecast layout! Learn more

10-Day Weather Forecast

Advertisements
Track Severe Weather on mobile